sensor_id;sensor_type;location;lat;lon;timestamp;pressure;altitude;pressure_sealevel;temperature;humidity
18678;BME280;9469;51.114;13.914;2023-05-03T00:05:06;99771.75;;;10.46;92.24
18678;BME280;9469;51.114;13.914;2023-05-03T00:10:14;99764.56;;;10.51;91.21
18678;BME280;9469;51.114;13.914;2023-05-03T00:15:20;99776.34;;;10.79;89.79
18678;BME280;9469;51.114;13.914;2023-05-03T00:20:28;99769.66;;;10.92;88.80
18678;BME280;9469;51.114;13.914;2023-05-03T00:25:33;99775.47;;;10.99;88.47
18678;BME280;9469;51.114;13.914;2023-05-03T00:30:39;99772.28;;;10.97;88.92
18678;BME280;9469;51.114;13.914;2023-05-03T00:35:46;99764.31;;;10.43;90.88
18678;BME280;9469;51.114;13.914;2023-05-03T00:40:53;99763.09;;;10.74;90.64
18678;BME280;9469;51.114;13.914;2023-05-03T00:45:59;99764.09;;;10.34;93.95
18678;BME280;9469;51.114;13.914;2023-05-03T00:51:21;99764.47;;;10.66;92.54
18678;BME280;9469;51.114;13.914;2023-05-03T00:56:27;99770.03;;;10.70;93.10
18678;BME280;9469;51.114;13.914;2023-05-03T01:01:49;99762.16;;;10.45;95.03
18678;BME280;9469;51.114;13.914;2023-05-03T01:07:05;99760.50;;;10.64;93.86
18678;BME280;9469;51.114;13.914;2023-05-03T01:12:23;99762.13;;;10.55;94.37
18678;BME280;9469;51.114;13.914;2023-05-03T01:17:38;99763.47;;;10.52;94.07
18678;BME280;9469;51.114;13.914;2023-05-03T01:23:00;99759.19;;;10.56;93.70
18678;BME280;9469;51.114;13.914;2023-05-03T01:28:13;99752.81;;;10.52;95.24
18678;BME280;9469;51.114;13.914;2023-05-03T01:38:49;99765.25;;;9.93;98.88
18678;BME280;9469;51.114;13.914;2023-05-03T01:43:58;99761.78;;;10.13;98.65
18678;BME280;9469;51.114;13.914;2023-05-03T01:49:03;99762.34;;;9.79;96.94
18678;BME280;9469;51.114;13.914;2023-05-03T01:54:08;99755.47;;;9.78;95.37
18678;BME280;9469;51.114;13.914;2023-05-03T01:59:16;99756.81;;;9.66;93.57
18678;BME280;9469;51.114;13.914;2023-05-03T02:04:21;99750.41;;;9.87;92.31
18678;BME280;9469;51.114;13.914;2023-05-03T02:09:26;99758.94;;;9.79;90.04
18678;BME280;9469;51.114;13.914;2023-05-03T02:14:35;99757.88;;;9.60;90.50
18678;BME280;9469;51.114;13.914;2023-05-03T02:19:43;99767.91;;;9.93;88.85
18678;BME280;9469;51.114;13.914;2023-05-03T02:24:48;99757.03;;;9.79;87.50
18678;BME280;9469;51.114;13.914;2023-05-03T02:29:55;99745.16;;;9.36;89.44
18678;BME280;9469;51.114;13.914;2023-05-03T02:35:01;99744.63;;;9.34;88.91
18678;BME280;9469;51.114;13.914;2023-05-03T02:40:08;99755.25;;;9.24;85.40
18678;BME280;9469;51.114;13.914;2023-05-03T02:45:19;99754.19;;;9.56;84.98
18678;BME280;9469;51.114;13.914;2023-05-03T02:50:24;99769.03;;;9.67;82.74
18678;BME280;9469;51.114;13.914;2023-05-03T02:55:29;99764.56;;;9.47;82.26
18678;BME280;9469;51.114;13.914;2023-05-03T03:00:38;99774.34;;;9.36;82.65
18678;BME280;9469;51.114;13.914;2023-05-03T03:05:44;99780.22;;;9.33;82.31
18678;BME280;9469;51.114;13.914;2023-05-03T03:10:50;99784.16;;;9.61;79.95
18678;BME280;9469;51.114;13.914;2023-05-03T03:15:58;99778.34;;;9.09;80.48
18678;BME280;9469;51.114;13.914;2023-05-03T03:21:04;99787.09;;;9.04;81.71
18678;BME280;9469;51.114;13.914;2023-05-03T03:26:10;99797.75;;;9.24;80.75
18678;BME280;9469;51.114;13.914;2023-05-03T03:31:18;99803.03;;;9.14;79.73
18678;BME280;9469;51.114;13.914;2023-05-03T03:36:24;99799.88;;;9.43;78.88
18678;BME280;9469;51.114;13.914;2023-05-03T03:41:32;99803.28;;;9.08;80.30
18678;BME280;9469;51.114;13.914;2023-05-03T03:46:40;99812.53;;;8.85;81.73
18678;BME280;9469;51.114;13.914;2023-05-03T03:51:46;99803.53;;;9.01;80.20
18678;BME280;9469;51.114;13.914;2023-05-03T03:56:51;99809.88;;;8.85;81.91
18678;BME280;9469;51.114;13.914;2023-05-03T04:02:00;99817.34;;;9.03;80.96
18678;BME280;9469;51.114;13.914;2023-05-03T04:07:07;99826.13;;;9.09;81.59
18678;BME280;9469;51.114;13.914;2023-05-03T04:12:14;99831.16;;;9.05;82.37
18678;BME280;9469;51.114;13.914;2023-05-03T04:17:22;99840.75;;;9.21;80.70
18678;BME280;9469;51.114;13.914;2023-05-03T04:22:28;99846.53;;;9.03;84.07
18678;BME280;9469;51.114;13.914;2023-05-03T04:27:34;99848.72;;;9.26;82.34
18678;BME280;9469;51.114;13.914;2023-05-03T04:32:43;99852.13;;;9.12;83.39
18678;BME280;9469;51.114;13.914;2023-05-03T04:37:51;99866.53;;;9.46;82.92
18678;BME280;9469;51.114;13.914;2023-05-03T04:42:59;99867.31;;;9.31;83.71
18678;BME280;9469;51.114;13.914;2023-05-03T04:48:10;99871.53;;;9.27;83.74
18678;BME280;9469;51.114;13.914;2023-05-03T04:53:16;99880.25;;;9.03;86.61
18678;BME280;9469;51.114;13.914;2023-05-03T04:58:43;99886.19;;;9.70;84.55
18678;BME280;9469;51.114;13.914;2023-05-03T05:03:55;99883.44;;;9.05;87.97
18678;BME280;9469;51.114;13.914;2023-05-03T05:09:20;99884.31;;;9.35;88.17
18678;BME280;9469;51.114;13.914;2023-05-03T05:14:29;99893.09;;;9.46;88.05
18678;BME280;9469;51.114;13.914;2023-05-03T05:19:42;99890.66;;;9.19;88.32
18678;BME280;9469;51.114;13.914;2023-05-03T05:24:49;99897.63;;;9.56;87.95
18678;BME280;9469;51.114;13.914;2023-05-03T05:29:56;99898.16;;;9.58;85.26
18678;BME280;9469;51.114;13.914;2023-05-03T05:35:10;99904.78;;;10.36;80.49
18678;BME280;9469;51.114;13.914;2023-05-03T05:40:21;99911.44;;;9.78;82.61
18678;BME280;9469;51.114;13.914;2023-05-03T05:45:31;99915.16;;;9.62;82.30
18678;BME280;9469;51.114;13.914;2023-05-03T05:50:44;99911.63;;;10.62;78.87
18678;BME280;9469;51.114;13.914;2023-05-03T05:55:50;99921.41;;;10.76;76.44
18678;BME280;9469;51.114;13.914;2023-05-03T06:01:04;99911.94;;;10.40;77.66
18678;BME280;9469;51.114;13.914;2023-05-03T06:06:14;99922.88;;;9.88;78.81
18678;BME280;9469;51.114;13.914;2023-05-03T06:11:22;99921.75;;;10.55;78.78
18678;BME280;9469;51.114;13.914;2023-05-03T06:16:32;99922.44;;;12.17;71.72
18678;BME280;9469;51.114;13.914;2023-05-03T06:21:43;99929.34;;;11.50;72.95
18678;BME280;9469;51.114;13.914;2023-05-03T06:26:50;99924.94;;;12.61;70.31
18678;BME280;9469;51.114;13.914;2023-05-03T06:31:59;99930.63;;;11.97;71.25
18678;BME280;9469;51.114;13.914;2023-05-03T06:37:09;99924.69;;;13.98;65.22
18678;BME280;9469;51.114;13.914;2023-05-03T06:42:15;99931.31;;;12.88;65.16
18678;BME280;9469;51.114;13.914;2023-05-03T06:47:23;99936.44;;;13.09;64.64
18678;BME280;9469;51.114;13.914;2023-05-03T06:52:35;99925.03;;;15.24;58.92
18678;BME280;9469;51.114;13.914;2023-05-03T06:57:42;99926.88;;;16.78;59.15
18678;BME280;9469;51.114;13.914;2023-05-03T07:02:48;99926.94;;;15.09;61.04
18678;BME280;9469;51.114;13.914;2023-05-03T07:07:56;99909.00;;;18.62;53.87
18678;BME280;9469;51.114;13.914;2023-05-03T07:13:04;99934.03;;;15.41;57.40
18678;BME280;9469;51.114;13.914;2023-05-03T07:18:10;99933.56;;;16.50;55.68
18678;BME280;9469;51.114;13.914;2023-05-03T07:23:18;99921.22;;;16.49;54.80
18678;BME280;9469;51.114;13.914;2023-05-03T07:28:26;99917.00;;;16.04;54.66
18678;BME280;9469;51.114;13.914;2023-05-03T07:33:33;99914.75;;;15.53;56.80
18678;BME280;9469;51.114;13.914;2023-05-03T07:38:41;99915.41;;;15.94;55.64
18678;BME280;9469;51.114;13.914;2023-05-03T07:43:54;99918.66;;;16.75;55.31
18678;BME280;9469;51.114;13.914;2023-05-03T08:00:47;99912.66;;;15.00;55.77
18678;BME280;9469;51.114;13.914;2023-05-03T08:05:55;99916.91;;;15.29;59.12
18678;BME280;9469;51.114;13.914;2023-05-03T08:11:02;99909.50;;;15.92;57.34
18678;BME280;9469;51.114;13.914;2023-05-03T08:16:12;99919.22;;;14.67;58.21
18678;BME280;9469;51.114;13.914;2023-05-03T08:21:17;99907.50;;;14.50;58.07
18678;BME280;9469;51.114;13.914;2023-05-03T08:26:25;99908.69;;;14.71;57.48
18678;BME280;9469;51.114;13.914;2023-05-03T08:31:35;99893.50;;;16.31;57.76
18678;BME280;9469;51.114;13.914;2023-05-03T08:36:40;99906.78;;;12.63;61.28
18678;BME280;9469;51.114;13.914;2023-05-03T08:41:47;99920.34;;;13.88;61.09
18678;BME280;9469;51.114;13.914;2023-05-03T08:47:00;99910.63;;;15.91;55.49
18678;BME280;9469;51.114;13.914;2023-05-03T08:52:15;99911.31;;;13.98;58.09
18678;BME280;9469;51.114;13.914;2023-05-03T08:57:30;99929.56;;;12.79;58.49
18678;BME280;9469;51.114;13.914;2023-05-03T09:02:42;99912.19;;;14.71;54.74
18678;BME280;9469;51.114;13.914;2023-05-03T09:08:00;99910.09;;;14.68;56.44
18678;BME280;9469;51.114;13.914;2023-05-03T09:13:09;99909.13;;;15.27;57.17
18678;BME280;9469;51.114;13.914;2023-05-03T09:18:23;99910.88;;;14.55;55.71
18678;BME280;9469;51.114;13.914;2023-05-03T09:23:30;99907.34;;;14.27;57.80
18678;BME280;9469;51.114;13.914;2023-05-03T09:28:40;99914.63;;;16.24;56.13
18678;BME280;9469;51.114;13.914;2023-05-03T09:33:49;99905.53;;;14.69;55.22
18678;BME280;9469;51.114;13.914;2023-05-03T09:38:54;99905.53;;;14.55;55.61
18678;BME280;9469;51.114;13.914;2023-05-03T09:44:00;99906.91;;;15.78;56.04
18678;BME280;9469;51.114;13.914;2023-05-03T09:49:12;99911.41;;;15.34;56.28
18678;BME280;9469;51.114;13.914;2023-05-03T09:54:27;99904.31;;;15.02;56.02
18678;BME280;9469;51.114;13.914;2023-05-03T09:59:34;99902.44;;;14.89;56.52
18678;BME280;9469;51.114;13.914;2023-05-03T10:04:50;99898.78;;;15.92;54.77
18678;BME280;9469;51.114;13.914;2023-05-03T10:10:03;99895.31;;;15.69;55.49
18678;BME280;9469;51.114;13.914;2023-05-03T10:15:09;99888.91;;;16.63;54.92
18678;BME280;9469;51.114;13.914;2023-05-03T10:20:25;99883.53;;;16.63;53.07
18678;BME280;9469;51.114;13.914;2023-05-03T10:25:35;99876.03;;;15.67;56.65
18678;BME280;9469;51.114;13.914;2023-05-03T10:30:43;99880.06;;;16.31;55.81
18678;BME280;9469;51.114;13.914;2023-05-03T10:35:55;99873.19;;;16.47;53.82
18678;BME280;9469;51.114;13.914;2023-05-03T10:41:01;99874.41;;;15.58;54.64
18678;BME280;9469;51.114;13.914;2023-05-03T10:46:28;99865.59;;;16.97;52.36
18678;BME280;9469;51.114;13.914;2023-05-03T10:51:36;99869.47;;;15.51;54.18
18678;BME280;9469;51.114;13.914;2023-05-03T10:56:54;99865.19;;;15.15;56.40
18678;BME280;9469;51.114;13.914;2023-05-03T11:02:01;99869.63;;;15.33;56.16
18678;BME280;9469;51.114;13.914;2023-05-03T11:07:18;99848.69;;;16.49;56.56
18678;BME280;9469;51.114;13.914;2023-05-03T11:12:25;99870.09;;;16.01;54.28
18678;BME280;9469;51.114;13.914;2023-05-03T11:17:30;99854.75;;;15.93;53.73
18678;BME280;9469;51.114;13.914;2023-05-03T11:22:46;99849.97;;;17.42;51.43
18678;BME280;9469;51.114;13.914;2023-05-03T11:27:53;99851.09;;;17.07;54.17
18678;BME280;9469;51.114;13.914;2023-05-03T11:33:05;99849.38;;;16.55;52.14
18678;BME280;9469;51.114;13.914;2023-05-03T11:38:16;99851.13;;;15.67;53.53
18678;BME280;9469;51.114;13.914;2023-05-03T11:43:26;99853.81;;;15.31;53.90
18678;BME280;9469;51.114;13.914;2023-05-03T11:48:46;99853.13;;;15.84;53.83
18678;BME280;9469;51.114;13.914;2023-05-03T11:53:54;99857.22;;;15.59;54.03
18678;BME280;9469;51.114;13.914;2023-05-03T11:59:08;99853.09;;;16.36;54.90
18678;BME280;9469;51.114;13.914;2023-05-03T12:04:16;99849.16;;;16.99;53.23
18678;BME280;9469;51.114;13.914;2023-05-03T12:09:26;99854.75;;;16.55;54.04
18678;BME280;9469;51.114;13.914;2023-05-03T12:14:54;99854.06;;;16.10;53.89
18678;BME280;9469;51.114;13.914;2023-05-03T12:20:18;99841.09;;;16.03;54.30
18678;BME280;9469;51.114;13.914;2023-05-03T12:25:31;99838.53;;;16.68;54.09
18678;BME280;9469;51.114;13.914;2023-05-03T12:30:44;99839.00;;;16.79;52.92
18678;BME280;9469;51.114;13.914;2023-05-03T12:35:50;99826.56;;;17.26;52.08
18678;BME280;9469;51.114;13.914;2023-05-03T12:41:03;99825.94;;;17.46;52.87
18678;BME280;9469;51.114;13.914;2023-05-03T12:46:11;99821.66;;;17.02;53.04
18678;BME280;9469;51.114;13.914;2023-05-03T12:51:36;99821.84;;;17.57;51.73
18678;BME280;9469;51.114;13.914;2023-05-03T12:56:46;99815.91;;;16.69;52.46
18678;BME280;9469;51.114;13.914;2023-05-03T13:01:56;99803.59;;;16.94;52.31
18678;BME280;9469;51.114;13.914;2023-05-03T13:07:04;99800.13;;;16.85;52.65
18678;BME280;9469;51.114;13.914;2023-05-03T13:12:17;99809.06;;;15.54;53.86
18678;BME280;9469;51.114;13.914;2023-05-03T13:17:23;99806.75;;;15.61;54.18
18678;BME280;9469;51.114;13.914;2023-05-03T13:22:28;99800.41;;;16.18;53.60
18678;BME280;9469;51.114;13.914;2023-05-03T13:27:47;99792.88;;;15.90;53.59
18678;BME280;9469;51.114;13.914;2023-05-03T13:32:54;99783.66;;;16.52;53.50
18678;BME280;9469;51.114;13.914;2023-05-03T13:37:59;99776.13;;;16.97;52.89
18678;BME280;9469;51.114;13.914;2023-05-03T13:43:07;99777.69;;;16.81;53.33
18678;BME280;9469;51.114;13.914;2023-05-03T13:48:13;99778.31;;;17.12;53.68
18678;BME280;9469;51.114;13.914;2023-05-03T13:53:21;99765.34;;;17.05;54.15
18678;BME280;9469;51.114;13.914;2023-05-03T13:58:32;99762.66;;;16.15;54.81
18678;BME280;9469;51.114;13.914;2023-05-03T14:03:40;99757.78;;;16.99;53.91
18678;BME280;9469;51.114;13.914;2023-05-03T14:08:46;99768.81;;;16.15;55.04
18678;BME280;9469;51.114;13.914;2023-05-03T14:13:57;99748.75;;;17.29;52.58
18678;BME280;9469;51.114;13.914;2023-05-03T14:19:04;99749.38;;;16.75;54.54
18678;BME280;9469;51.114;13.914;2023-05-03T14:24:12;99760.75;;;16.80;55.67
18678;BME280;9469;51.114;13.914;2023-05-03T14:29:24;99751.56;;;17.33;53.73
18678;BME280;9469;51.114;13.914;2023-05-03T14:34:32;99752.72;;;17.06;53.83
18678;BME280;9469;51.114;13.914;2023-05-03T14:39:38;99742.56;;;17.29;54.17
18678;BME280;9469;51.114;13.914;2023-05-03T14:44:49;99753.28;;;16.04;54.40
18678;BME280;9469;51.114;13.914;2023-05-03T14:49:57;99738.00;;;17.03;54.98
18678;BME280;9469;51.114;13.914;2023-05-03T14:55:06;99745.09;;;16.74;53.56
18678;BME280;9469;51.114;13.914;2023-05-03T15:00:15;99743.06;;;16.88;54.34
18678;BME280;9469;51.114;13.914;2023-05-03T15:05:21;99726.75;;;17.27;53.46
18678;BME280;9469;51.114;13.914;2023-05-03T15:10:26;99747.31;;;17.14;53.51
18678;BME280;9469;51.114;13.914;2023-05-03T15:15:36;99737.28;;;16.38;53.83
18678;BME280;9469;51.114;13.914;2023-05-03T15:20:42;99738.78;;;17.21;54.76
18678;BME280;9469;51.114;13.914;2023-05-03T15:25:47;99742.28;;;17.13;54.27
18678;BME280;9469;51.114;13.914;2023-05-03T15:30:57;99739.25;;;16.80;54.65
18678;BME280;9469;51.114;13.914;2023-05-03T15:36:06;99731.81;;;17.03;54.38
18678;BME280;9469;51.114;13.914;2023-05-03T15:41:12;99735.31;;;17.20;55.02
18678;BME280;9469;51.114;13.914;2023-05-03T15:46:20;99732.72;;;16.47;54.71
18678;BME280;9469;51.114;13.914;2023-05-03T15:51:25;99724.56;;;16.61;53.49
18678;BME280;9469;51.114;13.914;2023-05-03T15:56:32;99719.66;;;17.05;52.86
18678;BME280;9469;51.114;13.914;2023-05-03T16:01:41;99727.81;;;16.32;54.04
18678;BME280;9469;51.114;13.914;2023-05-03T16:06:46;99719.56;;;16.28;53.89
18678;BME280;9469;51.114;13.914;2023-05-03T16:11:52;99724.78;;;15.46;54.11
18678;BME280;9469;51.114;13.914;2023-05-03T16:17:01;99723.25;;;15.85;53.98
18678;BME280;9469;51.114;13.914;2023-05-03T16:22:11;99716.59;;;16.38;53.29
18678;BME280;9469;51.114;13.914;2023-05-03T16:27:18;99712.47;;;15.76;53.64
18678;BME280;9469;51.114;13.914;2023-05-03T16:32:31;99707.00;;;15.90;53.09
18678;BME280;9469;51.114;13.914;2023-05-03T16:37:37;99697.25;;;16.02;53.44
18678;BME280;9469;51.114;13.914;2023-05-03T16:42:43;99701.84;;;15.40;54.04
18678;BME280;9469;51.114;13.914;2023-05-03T16:47:51;99700.78;;;15.72;53.53
18678;BME280;9469;51.114;13.914;2023-05-03T16:52:56;99686.84;;;16.01;53.23
18678;BME280;9469;51.114;13.914;2023-05-03T16:58:11;99691.16;;;15.71;53.13
18678;BME280;9469;51.114;13.914;2023-05-03T17:03:19;99694.56;;;15.63;53.04
18678;BME280;9469;51.114;13.914;2023-05-03T17:08:26;99697.41;;;15.36;53.51
18678;BME280;9469;51.114;13.914;2023-05-03T17:13:32;99700.34;;;15.26;53.08
18678;BME280;9469;51.114;13.914;2023-05-03T17:18:41;99701.06;;;15.40;54.00
18678;BME280;9469;51.114;13.914;2023-05-03T17:23:48;99701.16;;;15.26;53.62
18678;BME280;9469;51.114;13.914;2023-05-03T17:28:53;99702.69;;;15.19;53.51
18678;BME280;9469;51.114;13.914;2023-05-03T17:34:01;99699.50;;;15.17;53.40
18678;BME280;9469;51.114;13.914;2023-05-03T17:39:06;99701.19;;;14.68;54.09
18678;BME280;9469;51.114;13.914;2023-05-03T17:44:13;99699.50;;;14.72;54.62
18678;BME280;9469;51.114;13.914;2023-05-03T17:49:22;99703.13;;;14.90;54.76
18678;BME280;9469;51.114;13.914;2023-05-03T17:54:36;99700.03;;;14.61;55.32
18678;BME280;9469;51.114;13.914;2023-05-03T17:59:46;99698.28;;;14.56;56.08
18678;BME280;9469;51.114;13.914;2023-05-03T18:04:55;99696.31;;;14.34;56.32
18678;BME280;9469;51.114;13.914;2023-05-03T18:10:01;99713.19;;;14.35;56.80
18678;BME280;9469;51.114;13.914;2023-05-03T18:15:14;99710.59;;;14.30;57.49
18678;BME280;9469;51.114;13.914;2023-05-03T18:20:22;99711.69;;;14.15;57.96
18678;BME280;9469;51.114;13.914;2023-05-03T18:25:29;99709.69;;;13.80;58.68
18678;BME280;9469;51.114;13.914;2023-05-03T18:30:37;99720.72;;;13.79;59.34
18678;BME280;9469;51.114;13.914;2023-05-03T18:35:50;99722.00;;;13.81;59.67
18678;BME280;9469;51.114;13.914;2023-05-03T18:40:56;99732.59;;;13.73;60.97
18678;BME280;9469;51.114;13.914;2023-05-03T18:46:02;99727.31;;;13.54;61.15
18678;BME280;9469;51.114;13.914;2023-05-03T18:51:11;99727.94;;;13.32;62.48
18678;BME280;9469;51.114;13.914;2023-05-03T18:56:20;99721.78;;;13.18;63.36
18678;BME280;9469;51.114;13.914;2023-05-03T19:01:25;99738.63;;;13.32;63.59
18678;BME280;9469;51.114;13.914;2023-05-03T19:06:36;99743.06;;;13.23;65.06
18678;BME280;9469;51.114;13.914;2023-05-03T19:11:42;99739.59;;;13.04;67.04
18678;BME280;9469;51.114;13.914;2023-05-03T19:16:48;99745.66;;;13.10;67.62
18678;BME280;9469;51.114;13.914;2023-05-03T19:21:59;99745.94;;;13.27;68.22
18678;BME280;9469;51.114;13.914;2023-05-03T19:27:04;99748.94;;;12.88;70.59
18678;BME280;9469;51.114;13.914;2023-05-03T19:32:09;99749.22;;;12.68;71.87
18678;BME280;9469;51.114;13.914;2023-05-03T19:37:18;99729.97;;;12.29;72.85
18678;BME280;9469;51.114;13.914;2023-05-03T19:42:27;99739.75;;;12.14;74.43
18678;BME280;9469;51.114;13.914;2023-05-03T19:47:34;99739.59;;;11.82;76.45
18678;BME280;9469;51.114;13.914;2023-05-03T19:52:47;99740.72;;;11.76;77.51
18678;BME280;9469;51.114;13.914;2023-05-03T19:57:57;99743.84;;;11.54;79.35
18678;BME280;9469;51.114;13.914;2023-05-03T20:03:03;99748.53;;;11.68;78.69
18678;BME280;9469;51.114;13.914;2023-05-03T20:08:13;99754.06;;;11.42;80.09
18678;BME280;9469;51.114;13.914;2023-05-03T20:13:20;99759.00;;;11.25;80.99
18678;BME280;9469;51.114;13.914;2023-05-03T20:18:34;99758.91;;;11.02;80.92
18678;BME280;9469;51.114;13.914;2023-05-03T20:23:44;99739.16;;;10.74;82.68
18678;BME280;9469;51.114;13.914;2023-05-03T20:28:51;99744.16;;;10.80;82.43
18678;BME280;9469;51.114;13.914;2023-05-03T20:33:57;99750.06;;;10.72;83.82
18678;BME280;9469;51.114;13.914;2023-05-03T20:39:05;99745.34;;;10.59;84.31
18678;BME280;9469;51.114;13.914;2023-05-03T20:44:12;99740.66;;;10.36;85.76
18678;BME280;9469;51.114;13.914;2023-05-03T20:49:20;99746.03;;;10.26;86.27
18678;BME280;9469;51.114;13.914;2023-05-03T20:54:29;99733.31;;;10.08;87.12
18678;BME280;9469;51.114;13.914;2023-05-03T20:59:34;99729.63;;;9.99;87.44
18678;BME280;9469;51.114;13.914;2023-05-03T21:04:40;99742.13;;;9.88;87.72
18678;BME280;9469;51.114;13.914;2023-05-03T21:09:48;99745.41;;;9.65;88.52
18678;BME280;9469;51.114;13.914;2023-05-03T21:14:57;99742.22;;;9.58;89.33
18678;BME280;9469;51.114;13.914;2023-05-03T21:20:11;99726.28;;;9.58;88.31
18678;BME280;9469;51.114;13.914;2023-05-03T21:25:21;99733.44;;;9.48;89.28
18678;BME280;9469;51.114;13.914;2023-05-03T21:30:30;99725.50;;;9.37;89.66
18678;BME280;9469;51.114;13.914;2023-05-03T21:35:36;99722.84;;;9.07;90.82
18678;BME280;9469;51.114;13.914;2023-05-03T21:40:44;99723.91;;;8.76;92.06
18678;BME280;9469;51.114;13.914;2023-05-03T21:45:50;99729.19;;;8.66;92.78
18678;BME280;9469;51.114;13.914;2023-05-03T21:50:57;99726.91;;;8.23;91.95
18678;BME280;9469;51.114;13.914;2023-05-03T21:56:06;99731.31;;;8.59;92.39
18678;BME280;9469;51.114;13.914;2023-05-03T22:01:14;99720.91;;;8.42;91.64
18678;BME280;9469;51.114;13.914;2023-05-03T22:06:21;99712.97;;;8.47;90.99
18678;BME280;9469;51.114;13.914;2023-05-03T22:11:30;99724.66;;;8.51;91.32
18678;BME280;9469;51.114;13.914;2023-05-03T22:16:38;99734.19;;;8.57;91.36
18678;BME280;9469;51.114;13.914;2023-05-03T22:21:46;99726.44;;;8.31;92.34
18678;BME280;9469;51.114;13.914;2023-05-03T22:26:54;99718.13;;;8.17;93.50
18678;BME280;9469;51.114;13.914;2023-05-03T22:32:07;99726.03;;;8.02;93.09
18678;BME280;9469;51.114;13.914;2023-05-03T22:37:14;99716.41;;;7.86;94.17
18678;BME280;9469;51.114;13.914;2023-05-03T22:42:23;99727.09;;;8.06;93.66
18678;BME280;9469;51.114;13.914;2023-05-03T22:47:28;99722.72;;;8.27;92.64
18678;BME280;9469;51.114;13.914;2023-05-03T22:52:35;99717.00;;;8.03;93.63
18678;BME280;9469;51.114;13.914;2023-05-03T22:57:46;99720.97;;;7.95;93.62
18678;BME280;9469;51.114;13.914;2023-05-03T23:02:53;99716.69;;;7.89;94.12
18678;BME280;9469;51.114;13.914;2023-05-03T23:07:59;99713.06;;;7.54;96.04
18678;BME280;9469;51.114;13.914;2023-05-03T23:13:07;99720.97;;;7.49;97.13
18678;BME280;9469;51.114;13.914;2023-05-03T23:18:18;99708.88;;;7.26;97.38
18678;BME280;9469;51.114;13.914;2023-05-03T23:23:26;99715.97;;;7.52;96.78
18678;BME280;9469;51.114;13.914;2023-05-03T23:28:35;99712.06;;;7.23;96.79
18678;BME280;9469;51.114;13.914;2023-05-03T23:33:40;99704.72;;;7.30;97.17
18678;BME280;9469;51.114;13.914;2023-05-03T23:38:46;99698.88;;;7.28;96.71
18678;BME280;9469;51.114;13.914;2023-05-03T23:44:00;99703.59;;;7.21;97.58
18678;BME280;9469;51.114;13.914;2023-05-03T23:49:07;99707.22;;;6.83;100.00
18678;BME280;9469;51.114;13.914;2023-05-03T23:54:13;99700.81;;;7.06;98.56
18678;BME280;9469;51.114;13.914;2023-05-03T23:59:25;99702.09;;;6.98;98.64
